Time;durP1;ratioP1;P1;durP2;ratioP2;P2;SDS_P1;SDS_P2;PMS_P1;PMS_P2;Temp;Humidity;BMP_temperature;BMP_pressure;BME280_temperature;BME280_humidity;BME280_pressure;Samples;Min_cycle;Max_cycle;Signal;HPM_P1;HPM_P2
2022/09/28 00:01:06;;;;;;;1.90;1.40;;;8.50;99.90;;;;;;5070139;28;20896;-52
2022/09/28 00:03:33;;;;;;;2.05;1.80;;;8.60;99.90;;;;;;5070242;28;20074;-54
2022/09/28 00:06:07;;;;;;;1.70;1.48;;;8.60;99.90;;;;;;5070064;28;20507;-54
2022/09/28 00:08:34;;;;;;;2.08;1.70;;;8.60;99.90;;;;;;5053183;28;20140;-55
2022/09/28 00:11:01;;;;;;;1.58;1.48;;;8.70;99.90;;;;;;5051271;28;20083;-53
2022/09/28 00:13:27;;;;;;;2.65;1.30;;;8.70;99.90;;;;;;5051391;28;20392;-55
2022/09/28 00:16:20;;;;;;;1.45;1.35;;;8.70;99.90;;;;;;5051134;28;20391;-53
2022/09/28 00:18:47;;;;;;;6.03;1.55;;;8.60;99.90;;;;;;5051556;28;20037;-54
2022/09/28 00:21:24;;;;;;;3.53;1.50;;;8.60;99.90;;;;;;5051875;28;20108;-53
2022/09/28 00:24:11;;;;;;;1.65;1.55;;;8.60;99.90;;;;;;5057032;28;20024;-55
2022/09/28 00:26:48;;;;;;;1.60;1.33;;;8.50;99.90;;;;;;5051302;28;20075;-52
2022/09/28 00:29:18;;;;;;;7.07;1.30;;;8.60;99.90;;;;;;5051295;28;20027;-53
2022/09/28 00:31:44;;;;;;;1.52;1.42;;;8.80;99.90;;;;;;5051137;28;20025;-52
2022/09/28 00:34:10;;;;;;;1.27;1.17;;;8.80;99.90;;;;;;5051021;28;20091;-52
2022/09/28 00:36:36;;;;;;;2.03;1.30;;;8.80;99.90;;;;;;5052352;28;20461;-53
2022/09/28 00:39:06;;;;;;;1.50;1.40;;;8.80;99.90;;;;;;5071826;28;20036;-53
2022/09/28 00:41:33;;;;;;;3.88;1.58;;;8.80;99.90;;;;;;5074990;28;20021;-53
2022/09/28 00:44:23;;;;;;;1.60;1.50;;;8.80;99.90;;;;;;5074869;28;20552;-51
2022/09/28 00:47:01;;;;;;;2.28;2.08;;;8.80;99.90;;;;;;5074570;28;20013;-51
2022/09/28 00:49:38;;;;;;;1.88;1.77;;;8.80;99.90;;;;;;5074915;28;20406;-52
2022/09/28 00:52:06;;;;;;;1.83;1.73;;;8.80;99.90;;;;;;5074262;28;20024;-51
2022/09/28 00:54:33;;;;;;;1.83;1.48;;;8.80;99.90;;;;;;5074804;28;20120;-51
2022/09/28 00:57:01;;;;;;;1.83;1.60;;;8.70;99.90;;;;;;5074584;28;20040;-55
2022/09/28 00:59:27;;;;;;;4.03;1.65;;;8.60;99.90;;;;;;5074521;28;20020;-55
2022/09/28 01:01:52;;;;;;;1.80;1.50;;;8.60;99.90;;;;;;5074479;28;20108;-53
2022/09/28 01:04:18;;;;;;;1.40;1.30;;;8.60;99.90;;;;;;5074756;28;20028;-55
2022/09/28 01:06:45;;;;;;;1.55;1.40;;;8.60;99.90;;;;;;5067445;28;20024;-54
2022/09/28 01:09:12;;;;;;;1.40;1.30;;;8.70;99.90;;;;;;5055702;28;20058;-55
2022/09/28 01:11:39;;;;;;;1.95;1.45;;;8.70;99.90;;;;;;5054430;28;20060;-53
2022/09/28 01:14:08;;;;;;;1.60;1.50;;;8.70;99.90;;;;;;5054526;28;20039;-53
2022/09/28 01:16:54;;;;;;;1.60;1.50;;;8.60;99.90;;;;;;5054208;28;20116;-53
2022/09/28 01:19:54;;;;;;;1.38;1.30;;;8.60;99.90;;;;;;5057050;28;20065;-52
2022/09/28 01:22:25;;;;;;;1.65;1.40;;;8.60;99.90;;;;;;5054124;28;20378;-52
2022/09/28 01:25:16;;;;;;;2.75;1.65;;;8.60;99.90;;;;;;5053972;28;20029;-52
2022/09/28 01:27:57;;;;;;;2.63;1.58;;;8.50;99.90;;;;;;5055694;28;20028;-54
2022/09/28 01:30:23;;;;;;;1.55;1.35;;;8.50;99.90;;;;;;5054078;28;20028;-52
2022/09/28 01:33:00;;;;;;;1.40;1.30;;;8.50;99.90;;;;;;5053966;28;20029;-52
2022/09/28 01:35:44;;;;;;;1.50;1.40;;;8.50;99.90;;;;;;5054086;28;20021;-53
2022/09/28 01:38:27;;;;;;;1.50;1.40;;;8.50;99.90;;;;;;5071542;28;20086;-52
2022/09/28 01:40:54;;;;;;;2.83;1.70;;;8.50;99.90;;;;;;5073746;28;20095;-53
2022/09/28 01:43:24;;;;;;;2.13;1.88;;;8.40;99.90;;;;;;5073827;28;20263;-53
2022/09/28 01:46:26;;;;;;;1.50;1.40;;;8.40;99.90;;;;;;5073685;28;20049;-52
2022/09/28 01:49:09;;;;;;;2.63;1.60;;;8.40;99.90;;;;;;5072022;28;20135;-55
2022/09/28 01:51:35;;;;;;;2.00;1.60;;;8.40;99.90;;;;;;5073776;28;20383;-51
2022/09/28 01:54:09;;;;;;;1.42;1.33;;;8.50;99.90;;;;;;5073406;28;20024;-56
2022/09/28 01:57:16;;;;;;;1.63;1.52;;;8.50;99.90;;;;;;5073519;28;20024;-52
2022/09/28 01:59:53;;;;;;;4.90;1.73;;;8.50;99.90;;;;;;5071761;28;20048;-53
2022/09/28 02:02:25;;;;;;;4.22;1.52;;;8.40;99.90;;;;;;5073675;28;20020;-53
2022/09/28 02:05:00;;;;;;;2.97;1.50;;;8.40;99.90;;;;;;5073323;28;20060;-52
2022/09/28 02:07:33;;;;;;;1.70;1.60;;;8.30;99.90;;;;;;5061138;28;20053;-52
2022/09/28 02:10:05;;;;;;;2.35;1.45;;;8.30;99.90;;;;;;5053251;28;20036;-51
2022/09/28 02:12:38;;;;;;;5.67;1.50;;;8.30;99.90;;;;;;5053370;28;20032;-54
2022/09/28 02:15:21;;;;;;;2.33;1.80;;;8.30;99.90;;;;;;5053037;28;20071;-53
2022/09/28 02:17:48;;;;;;;2.15;1.95;;;8.30;99.90;;;;;;5053018;28;20381;-52
2022/09/28 02:20:14;;;;;;;4.82;1.80;;;8.30;99.90;;;;;;5053176;28;20679;-53
2022/09/28 02:22:48;;;;;;;1.90;1.77;;;8.30;99.90;;;;;;5068586;28;20376;-53
2022/09/28 02:25:27;;;;;;;2.10;2.00;;;8.20;99.90;;;;;;5073143;28;20357;-52
2022/09/28 02:27:58;;;;;;;2.88;1.80;;;8.30;99.90;;;;;;5072703;28;20744;-54
2022/09/28 02:30:23;;;;;;;2.15;1.80;;;8.30;99.90;;;;;;5073110;28;20032;-53
2022/09/28 02:32:54;;;;;;;4.15;1.73;;;8.30;99.90;;;;;;5072794;28;20033;-53
2022/09/28 02:35:21;;;;;;;2.50;1.80;;;8.30;99.90;;;;;;5072772;28;20414;-55
2022/09/28 02:37:47;;;;;;;2.05;1.85;;;8.30;99.90;;;;;;5053367;28;20986;-53
2022/09/28 02:40:22;;;;;;;1.85;1.75;;;8.30;99.90;;;;;;5051524;28;20456;-52
2022/09/28 02:43:28;;;;;;;2.20;2.00;;;8.20;99.90;;;;;;5052522;28;20021;-53
2022/09/28 02:46:19;;;;;;;2.03;1.70;;;8.20;99.90;;;;;;5054994;28;20367;-54
2022/09/28 02:49:15;;;;;;;2.55;1.70;;;8.10;99.90;;;;;;5055122;28;20361;-53
2022/09/28 02:52:12;;;;;;;2.25;1.75;;;8.10;99.90;;;;;;5064118;28;20079;-52
2022/09/28 02:55:02;;;;;;;2.17;2.00;;;8.00;99.90;;;;;;5071719;28;20040;-54
2022/09/28 02:57:37;;;;;;;1.77;1.60;;;8.00;99.90;;;;;;5072274;28;20039;-52
2022/09/28 03:00:04;;;;;;;2.88;2.20;;;8.00;99.90;;;;;;5072148;28;20371;-53
2022/09/28 03:02:33;;;;;;;3.10;2.80;;;8.00;99.90;;;;;;5070611;28;20459;-52
2022/09/28 03:05:18;;;;;;;3.25;2.10;;;8.00;99.90;;;;;;5071942;28;20111;-53
2022/09/28 03:07:49;;;;;;;3.22;2.15;;;7.90;99.90;;;;;;5071592;28;20094;-53
2022/09/28 03:10:23;;;;;;;3.10;2.13;;;7.90;99.90;;;;;;5070842;28;20029;-53
2022/09/28 03:12:49;;;;;;;;;;;7.90;99.90;;;;;;5072550;28;20162;-52
2022/09/28 03:15:32;;;;;;;5.15;2.33;;;7.90;99.90;;;;;;5072094;28;19983;-52
2022/09/28 03:17:58;;;;;;;2.15;2.05;;;7.80;99.90;;;;;;5071901;28;20037;-51
2022/09/28 03:20:26;;;;;;;2.50;2.30;;;7.80;99.90;;;;;;5069296;28;20024;-53
2022/09/28 03:22:52;;;;;;;4.25;2.58;;;7.70;99.90;;;;;;5051768;28;20029;-54
2022/09/28 03:25:17;;;;;;;5.00;2.30;;;7.60;99.90;;;;;;5051975;28;20066;-52
2022/09/28 03:27:43;;;;;;;5.22;2.13;;;7.40;99.90;;;;;;5051757;28;20013;-54
2022/09/28 03:30:10;;;;;;;4.50;2.38;;;7.30;99.90;;;;;;5050587;28;20055;-55
2022/09/28 03:32:36;;;;;;;3.00;2.30;;;7.20;99.90;;;;;;5051843;28;20025;-50
2022/09/28 03:35:03;;;;;;;2.33;2.10;;;7.10;99.90;;;;;;5051800;28;20113;-51
2022/09/28 03:37:29;;;;;;;3.17;2.10;;;7.10;99.90;;;;;;5051619;28;20510;-53
2022/09/28 03:39:55;;;;;;;6.13;2.47;;;7.10;99.90;;;;;;5055188;28;20051;-53
2022/09/28 03:42:21;;;;;;;2.88;2.28;;;7.10;99.90;;;;;;5070456;28;20115;-53
2022/09/28 03:44:46;;;;;;;5.10;2.60;;;7.10;99.90;;;;;;5071430;28;20651;-52
2022/09/28 03:47:13;;;;;;;6.95;4.20;;;7.10;99.90;;;;;;5071741;28;20021;-54
2022/09/28 03:49:38;;;;;;;4.22;3.83;;;7.20;99.90;;;;;;5071551;28;20032;-56
2022/09/28 03:52:04;;;;;;;3.92;3.53;;;7.30;99.90;;;;;;5070003;28;20081;-51
2022/09/28 03:54:30;;;;;;;4.75;3.53;;;7.30;99.90;;;;;;5060736;28;20029;-52
2022/09/28 03:56:56;;;;;;;9.95;3.85;;;7.30;99.90;;;;;;5051331;28;20706;-51
2022/09/28 03:59:21;;;;;;;5.45;2.80;;;7.40;99.90;;;;;;5051607;28;20025;-52
2022/09/28 04:01:51;;;;;;;2.75;2.55;;;7.40;99.90;;;;;;5051321;28;20128;-52
2022/09/28 04:04:17;;;;;;;5.05;2.67;;;7.40;99.90;;;;;;5051576;28;20034;-52
2022/09/28 04:06:42;;;;;;;5.07;2.38;;;7.40;99.90;;;;;;5051012;28;20029;-52
2022/09/28 04:09:09;;;;;;;6.45;2.65;;;7.40;99.90;;;;;;5051476;28;20037;-52
2022/09/28 04:11:35;;;;;;;6.75;2.63;;;7.40;99.90;;;;;;5051187;28;20029;-54
2022/09/28 04:14:00;;;;;;;2.95;2.40;;;7.40;99.90;;;;;;5049802;28;20396;-55
2022/09/28 04:16:26;;;;;;;2.08;1.90;;;7.50;99.90;;;;;;5054578;28;20090;-52
2022/09/28 04:18:52;;;;;;;4.22;2.58;;;7.50;99.90;;;;;;5054800;28;20033;-52
2022/09/28 04:21:19;;;;;;;4.05;2.20;;;7.50;99.90;;;;;;5054531;28;20158;-54
2022/09/28 04:23:45;;;;;;;2.30;2.10;;;7.50;99.90;;;;;;5062879;28;20411;-54
2022/09/28 04:26:22;;;;;;;2.45;2.25;;;7.60;99.90;;;;;;5074653;28;20027;-55
2022/09/28 04:31:38;;;;;;;2.60;2.40;;;7.60;99.90;;;;;;5075188;28;20061;-51
2022/09/28 04:34:04;;;;;;;2.70;2.50;;;7.60;99.90;;;;;;5073855;28;20467;-53
2022/09/28 04:36:29;;;;;;;9.95;2.40;;;7.60;99.90;;;;;;5075103;28;20029;-54
2022/09/28 04:38:55;;;;;;;7.03;2.95;;;7.60;99.90;;;;;;5073332;28;20388;-53
2022/09/28 04:41:21;;;;;;;3.38;2.40;;;7.60;99.90;;;;;;5075133;28;20017;-56
2022/09/28 04:43:47;;;;;;;2.45;2.28;;;7.60;99.90;;;;;;5074726;28;20526;-51
2022/09/28 04:46:13;;;;;;;5.53;2.72;;;7.60;99.90;;;;;;5073419;28;20158;-55
2022/09/28 04:48:39;;;;;;;3.30;2.60;;;7.60;99.90;;;;;;5074983;28;20047;-56
2022/09/28 04:51:05;;;;;;;2.33;2.10;;;7.60;99.90;;;;;;5074430;28;20024;-54
2022/09/28 04:53:31;;;;;;;2.45;2.25;;;7.70;99.90;;;;;;5063486;28;20025;-56
2022/09/28 04:55:59;;;;;;;9.00;2.22;;;7.70;99.90;;;;;;5054614;28;20028;-51
2022/09/28 04:58:26;;;;;;;2.47;2.20;;;7.70;99.90;;;;;;5054597;28;20048;-52
2022/09/28 05:00:57;;;;;;;8.07;2.63;;;7.80;99.90;;;;;;5054437;28;20021;-52
2022/09/28 05:03:23;;;;;;;2.50;2.30;;;7.80;99.90;;;;;;5053313;28;20372;-53
2022/09/28 05:05:48;;;;;;;2.30;2.10;;;7.70;99.90;;;;;;5052913;28;20025;-54
2022/09/28 05:08:15;;;;;;;3.15;2.17;;;7.70;99.90;;;;;;5053520;28;20044;-54
2022/09/28 05:10:41;;;;;;;3.10;2.00;;;7.70;99.90;;;;;;5053122;28;20029;-54
2022/09/28 05:13:08;;;;;;;5.10;2.10;;;7.70;99.90;;;;;;5053059;28;20388;-52
2022/09/28 05:15:34;;;;;;;9.48;2.35;;;7.70;99.90;;;;;;5053206;28;20055;-51
2022/09/28 05:18:00;;;;;;;6.40;2.92;;;7.60;99.90;;;;;;5052917;28;20029;-56
2022/09/28 05:20:26;;;;;;;3.15;2.88;;;7.60;99.90;;;;;;5052974;28;20465;-52
2022/09/28 05:22:52;;;;;;;6.00;2.60;;;7.60;99.90;;;;;;5062794;28;20112;-52
2022/09/28 05:25:18;;;;;;;3.63;2.80;;;7.60;99.90;;;;;;5072597;28;20095;-52
2022/09/28 05:27:43;;;;;;;7.10;3.15;;;7.70;99.90;;;;;;5072747;28;20078;-53
2022/09/28 05:30:10;;;;;;;6.25;3.20;;;7.70;99.90;;;;;;5072986;28;20611;-53
2022/09/28 05:32:45;;;;;;;4.15;3.13;;;7.70;99.90;;;;;;5073048;28;20042;-53
2022/09/28 05:35:11;;;;;;;2.35;2.15;;;7.80;99.90;;;;;;5072966;28;20033;-55
2022/09/28 05:37:37;;;;;;;1.92;1.83;;;7.80;99.90;;;;;;5072347;28;20037;-53
2022/09/28 05:40:04;;;;;;;1.80;1.70;;;7.90;99.90;;;;;;5072683;28;20107;-53
2022/09/28 05:42:30;;;;;;;2.75;2.33;;;7.90;99.90;;;;;;5072598;28;20446;-54
2022/09/28 05:44:59;;;;;;;2.90;2.45;;;8.00;99.90;;;;;;5072680;28;20028;-52
2022/09/28 05:47:27;;;;;;;3.78;3.40;;;8.00;99.90;;;;;;5072746;28;20539;-53
2022/09/28 05:49:53;;;;;;;4.53;3.50;;;8.10;99.90;;;;;;5072506;28;20021;-54
2022/09/28 05:52:19;;;;;;;3.45;2.97;;;8.10;99.90;;;;;;5062829;28;20040;-51
2022/09/28 05:54:45;;;;;;;3.97;3.35;;;8.30;99.90;;;;;;5052400;28;20025;-53
2022/09/28 05:57:11;;;;;;;4.35;2.90;;;8.40;99.90;;;;;;5052335;28;20029;-52
2022/09/28 05:59:36;;;;;;;3.65;2.67;;;8.50;99.90;;;;;;5052410;28;20074;-52
2022/09/28 06:02:04;;;;;;;2.60;2.40;;;8.60;99.90;;;;;;5052265;28;20017;-52
2022/09/28 06:04:30;;;;;;;2.20;2.00;;;8.80;99.90;;;;;;5052404;28;20020;-53
2022/09/28 06:06:56;;;;;;;7.97;1.80;;;8.90;99.90;;;;;;5020695;28;1130877;-53
2022/09/28 06:09:24;;;;;;;5.40;2.30;;;9.00;99.90;;;;;;5073410;28;20035;-52
2022/09/28 06:11:51;;;;;;;5.93;2.35;;;9.00;99.90;;;;;;5073078;28;20021;-51
2022/09/28 06:14:17;;;;;;;2.40;2.20;;;9.20;99.90;;;;;;5073325;28;20029;-52
2022/09/28 06:16:43;;;;;;;5.25;2.10;;;9.30;99.90;;;;;;5071701;28;20039;-52
2022/09/28 06:22:31;;;;;;;2.33;1.73;;;9.10;99.90;;;;;;5057662;28;20064;-50
2022/09/28 06:24:56;;;;;;;2.33;2.13;;;9.10;99.90;;;;;;5052809;28;20064;-54
2022/09/28 06:27:22;;;;;;;4.43;1.77;;;9.20;99.90;;;;;;5052965;28;20108;-52
2022/09/28 06:29:47;;;;;;;3.47;2.13;;;9.30;99.90;;;;;;5052858;28;20448;-52
2022/09/28 06:32:13;;;;;;;4.30;2.10;;;9.40;99.90;;;;;;5052979;28;20500;-52
2022/09/28 06:34:40;;;;;;;1.60;1.48;;;9.50;99.90;;;;;;5052860;28;20033;-51
2022/09/28 06:37:06;;;;;;;4.82;2.28;;;9.70;99.90;;;;;;5051808;28;20071;-52
2022/09/28 06:39:32;;;;;;;3.05;2.10;;;9.60;99.90;;;;;;5052470;28;20369;-52
2022/09/28 06:42:03;;;;;;;2.65;2.05;;;9.70;99.90;;;;;;5052463;28;20032;-56
2022/09/28 06:44:31;;;;;;;2.35;2.17;;;9.90;99.90;;;;;;5052455;28;20401;-51
2022/09/28 06:47:05;;;;;;;2.40;1.88;;;9.80;99.90;;;;;;5052480;28;20033;-51
2022/09/28 06:49:31;;;;;;;3.00;2.00;;;9.80;99.90;;;;;;5052447;28;20029;-53
2022/09/28 06:51:56;;;;;;;4.28;3.83;;;9.90;99.90;;;;;;5066659;28;20027;-51
2022/09/28 06:54:24;;;;;;;2.85;2.00;;;10.10;99.90;;;;;;5072178;28;20471;-52
2022/09/28 06:56:51;;;;;;;1.65;1.50;;;10.10;99.90;;;;;;5072276;28;20027;-51
2022/09/28 06:59:17;;;;;;;1.65;1.55;;;10.30;99.90;;;;;;5072305;28;20055;-55
2022/09/28 07:01:43;;;;;;;2.08;1.60;;;10.40;99.90;;;;;;5057989;28;20048;-55
2022/09/28 07:04:08;;;;;;;1.70;1.60;;;10.30;99.90;;;;;;5052381;28;20396;-55
2022/09/28 07:06:34;;;;;;;5.53;2.00;;;10.40;99.90;;;;;;5052479;28;20020;-51
2022/09/28 07:09:01;;;;;;;5.28;2.25;;;10.30;99.90;;;;;;5051880;28;20060;-54
2022/09/28 07:11:28;;;;;;;4.10;1.63;;;10.30;99.90;;;;;;5052309;28;20376;-54
2022/09/28 07:13:54;;;;;;;5.93;1.52;;;10.30;99.90;;;;;;5052040;28;20021;-52
2022/09/28 07:16:19;;;;;;;4.75;1.77;;;10.40;99.90;;;;;;5063863;28;20033;-52
2022/09/28 07:18:45;;;;;;;4.82;1.70;;;10.40;99.90;;;;;;5071756;28;20020;-55
2022/09/28 07:21:11;;;;;;;3.42;1.90;;;10.40;99.90;;;;;;5072126;28;20051;-54
2022/09/28 07:23:36;;;;;;;2.05;1.50;;;10.50;99.90;;;;;;5071990;28;20495;-55
2022/09/28 07:26:04;;;;;;;11.60;2.50;;;10.50;99.90;;;;;;5070385;28;20036;-52
2022/09/28 07:28:30;;;;;;;4.90;1.73;;;10.50;99.90;;;;;;5070585;28;20471;-54
2022/09/28 07:30:56;;;;;;;6.22;2.35;;;10.50;99.90;;;;;;5059035;28;20024;-54
2022/09/28 07:33:24;;;;;;;15.93;3.47;;;10.60;99.90;;;;;;5050161;28;20037;-53
2022/09/28 07:35:54;;;;;;;4.45;2.10;;;10.40;99.90;;;;;;5050563;28;20033;-55
2022/09/28 07:38:20;;;;;;;6.40;2.33;;;10.50;99.90;;;;;;5050507;28;20032;-52
2022/09/28 07:43:31;;;;;;;6.75;2.20;;;10.50;99.90;;;;;;5050516;28;20443;-53
2022/09/28 07:45:57;;;;;;;1.92;1.77;;;10.70;99.90;;;;;;5058235;28;20031;-52
2022/09/28 07:48:23;;;;;;;1.70;1.60;;;10.60;99.90;;;;;;5070197;28;20024;-53
2022/09/28 07:50:53;;;;;;;5.22;2.13;;;10.70;99.90;;;;;;5068470;28;20484;-57
2022/09/28 07:53:21;;;;;;;3.28;2.00;;;10.70;99.90;;;;;;5070369;28;20115;-52
2022/09/28 07:55:55;;;;;;;6.97;5.03;;;10.80;99.90;;;;;;5070244;28;20369;-56
2022/09/28 07:58:21;;;;;;;;;;;10.90;99.90;;;;;;5070766;28;20115;-53
2022/09/28 08:00:48;;;;;;;3.00;1.85;;;11.20;99.90;;;;;;5070059;28;19991;-54
2022/09/28 08:03:18;;;;;;;6.00;2.15;;;11.40;99.90;;;;;;5070337;28;20028;-54
2022/09/28 08:05:45;;;;;;;5.18;3.90;;;11.30;99.90;;;;;;5060492;28;20032;-51
2022/09/28 08:08:12;;;;;;;6.25;3.88;;;11.40;99.90;;;;;;5050124;28;20069;-51
2022/09/28 08:10:38;;;;;;;2.80;2.50;;;11.10;99.90;;;;;;5050152;28;20024;-54
2022/09/28 08:13:04;;;;;;;2.17;1.88;;;11.10;99.90;;;;;;5050109;28;20468;-51
2022/09/28 08:15:37;;;;;;;2.25;1.90;;;11.00;99.90;;;;;;5050252;28;20516;-53
2022/09/28 08:18:06;;;;;;;7.27;4.57;;;10.90;99.90;;;;;;5049929;28;20029;-52
2022/09/28 08:23:16;;;;;;;9.82;5.43;;;10.60;99.90;;;;;;5050036;28;20063;-53
2022/09/28 08:25:47;;;;;;;3.80;1.90;;;10.80;99.90;;;;;;5049902;28;20049;-54
2022/09/28 08:28:16;;;;;;;3.90;3.55;;;10.80;99.90;;;;;;5050079;28;20029;-56
2022/09/28 08:30:43;;;;;;;6.45;2.17;;;10.80;99.90;;;;;;5054402;28;20032;-51
2022/09/28 08:33:10;;;;;;;4.22;2.30;;;10.80;99.90;;;;;;5070055;28;20404;-54
2022/09/28 08:35:36;;;;;;;4.68;1.90;;;10.90;99.90;;;;;;5069975;28;20457;-53
2022/09/28 08:38:02;;;;;;;4.32;3.50;;;11.00;99.90;;;;;;5069631;28;20051;-54
2022/09/28 08:40:33;;;;;;;2.13;1.90;;;11.20;99.90;;;;;;5069860;28;20070;-52
2022/09/28 08:43:03;;;;;;;2.92;2.17;;;11.40;99.90;;;;;;5068373;28;20033;-53
2022/09/28 08:45:32;;;;;;;2.10;1.90;;;11.50;99.90;;;;;;5069144;28;20031;-54
2022/09/28 08:51:25;;;;;;;2.17;1.50;;;12.00;99.90;;;;;;5069833;28;20160;-51
2022/09/28 08:54:20;;;;;;;6.05;1.85;;;12.10;99.90;;;;;;5068354;28;20032;-51
2022/09/28 08:57:00;;;;;;;1.60;1.50;;;12.10;99.90;;;;;;5069567;28;20025;-54
2022/09/28 08:59:40;;;;;;;2.00;1.67;;;12.30;99.90;;;;;;5069720;28;20387;-52
2022/09/28 09:02:14;;;;;;;3.42;2.10;;;12.30;99.90;;;;;;5053566;28;20025;-51
2022/09/28 09:04:40;;;;;;;2.00;1.80;;;12.50;99.90;;;;;;5051996;28;20020;-55
2022/09/28 09:07:11;;;;;;;3.35;1.83;;;12.40;99.90;;;;;;5053221;28;20389;-51
2022/09/28 09:09:43;;;;;;;10.70;4.20;;;12.70;99.90;;;;;;5053167;28;20052;-53
2022/09/28 09:12:18;;;;;;;6.80;4.47;;;12.60;99.90;;;;;;5053123;28;20053;-51
2022/09/28 09:14:59;;;;;;;8.07;3.35;;;12.60;99.90;;;;;;5053211;28;20304;-52
2022/09/28 09:17:44;;;;;;;28.33;13.75;;;12.50;99.90;;;;;;5053036;28;20021;-53
2022/09/28 09:20:19;;;;;;;18.02;10.18;;;12.50;99.90;;;;;;5052674;28;20438;-50
2022/09/28 09:22:56;;;;;;;4.10;1.90;;;12.70;99.90;;;;;;5056652;28;20013;-53
2022/09/28 09:25:40;;;;;;;63.70;23.58;;;12.90;99.90;;;;;;5070931;28;20023;-53
2022/09/28 09:28:21;;;;;;;22.17;7.70;;;13.00;99.90;;;;;;5071662;28;20017;-55
2022/09/28 09:31:02;;;;;;;18.15;9.63;;;13.10;99.90;;;;;;5071849;28;20021;-51
2022/09/28 09:33:50;;;;;;;21.98;8.18;;;12.60;99.90;;;;;;5072853;28;20434;-55
2022/09/28 09:36:29;;;;;;;63.08;25.23;;;12.70;99.90;;;;;;5054614;28;20044;-52
2022/09/28 09:39:16;;;;;;;4.85;2.90;;;12.60;99.90;;;;;;5052739;28;20389;-55
2022/09/28 09:41:51;;;;;;;2.80;2.20;;;12.90;99.90;;;;;;5052457;28;20017;-51
2022/09/28 09:44:46;;;;;;;3.28;2.15;;;12.80;99.90;;;;;;5052553;28;20050;-51
2022/09/28 09:47:16;;;;;;;3.75;2.15;;;12.80;99.90;;;;;;5052459;28;20025;-51
2022/09/28 09:50:01;;;;;;;8.60;3.55;;;12.80;99.90;;;;;;5053199;28;20112;-52
2022/09/28 09:52:29;;;;;;;9.15;3.65;;;12.60;99.90;;;;;;5053568;28;20020;-52
2022/09/28 09:55:18;;;;;;;5.95;3.70;;;12.80;99.90;;;;;;5052891;28;20625;-52
2022/09/28 09:57:50;;;;;;;3.22;2.60;;;13.10;99.90;;;;;;5052751;28;20029;-52
2022/09/28 10:00:17;;;;;;;3.33;2.78;;;12.70;99.90;;;;;;5052999;28;20053;-56
2022/09/28 10:02:46;;;;;;;3.63;2.60;;;12.90;99.90;;;;;;5053242;28;20029;-53
2022/09/28 10:05:11;;;;;;;4.15;2.20;;;13.10;99.90;;;;;;5065008;28;20356;-54
2022/09/28 10:08:01;;;;;;;2.33;2.13;;;13.10;99.90;;;;;;5073188;28;20043;-52
2022/09/28 10:10:29;;;;;;;1.60;1.50;;;13.10;99.90;;;;;;5073302;28;20039;-54
2022/09/28 10:12:55;;;;;;;2.63;2.20;;;13.00;99.90;;;;;;5052572;28;20116;-53
2022/09/28 10:15:26;;;;;;;6.00;5.40;;;13.00;99.90;;;;;;5053225;28;20365;-54
2022/09/28 10:17:59;;;;;;;2.40;2.20;;;13.10;99.90;;;;;;5052753;28;20029;-51
2022/09/28 10:20:33;;;;;;;3.10;2.80;;;13.80;99.90;;;;;;5054008;28;20028;-52
2022/09/28 10:23:02;;;;;;;2.05;1.65;;;13.90;99.90;;;;;;5053023;28;20771;-55
2022/09/28 10:25:32;;;;;;;1.75;1.50;;;14.20;99.90;;;;;;5068371;28;20012;-54
2022/09/28 10:28:01;;;;;;;1.70;1.60;;;14.10;99.90;;;;;;5072736;28;20059;-56
2022/09/28 10:30:27;;;;;;;1.42;1.33;;;13.80;99.90;;;;;;5073011;28;20048;-52
2022/09/28 10:32:58;;;;;;;17.65;14.23;;;13.70;99.90;;;;;;5072894;28;20025;-52
2022/09/28 10:35:30;;;;;;;1.80;1.70;;;13.70;99.90;;;;;;5072860;28;20096;-54
2022/09/28 10:38:03;;;;;;;1.45;1.23;;;13.80;99.90;;;;;;5072126;28;20405;-55
2022/09/28 10:40:43;;;;;;;1.00;1.00;;;14.00;99.90;;;;;;5055675;28;20337;-53
2022/09/28 10:43:30;;;;;;;1.08;0.98;;;14.40;99.90;;;;;;5026315;28;20108;-52
2022/09/28 10:46:22;;;;;;;1.85;1.00;;;14.70;99.90;;;;;;5041160;28;20424;-53
2022/09/28 10:48:47;;;;;;;2.17;1.10;;;14.30;99.90;;;;;;5051077;28;20021;-54
2022/09/28 10:51:13;;;;;;;0.85;0.80;;;14.40;99.90;;;;;;5042008;28;20445;-54
2022/09/28 10:53:39;;;;;;;0.73;0.73;;;14.80;99.90;;;;;;5040875;28;20025;-55
2022/09/28 10:56:21;;;;;;;1.13;0.90;;;14.60;99.90;;;;;;5041569;28;20031;-53
2022/09/28 10:58:47;;;;;;;0.82;0.82;;;14.00;99.90;;;;;;5040673;28;20044;-57
2022/09/28 11:01:17;;;;;;;1.25;1.13;;;14.30;99.90;;;;;;5041343;28;20106;-56
2022/09/28 11:03:59;;;;;;;0.85;0.85;;;14.30;99.90;;;;;;5045073;28;20021;-54
2022/09/28 11:06:30;;;;;;;1.63;1.33;;;13.90;99.90;;;;;;5044548;28;20024;-51
2022/09/28 11:09:19;;;;;;;4.47;1.35;;;14.30;99.90;;;;;;5043079;28;21760;-54
2022/09/28 11:11:46;;;;;;;38.08;25.08;;;14.20;99.90;;;;;;5057750;28;20025;-52
2022/09/28 11:14:34;;;;;;;9.60;5.95;;;14.20;99.90;;;;;;5040674;28;20373;-50
2022/09/28 11:17:23;;;;;;;8.45;3.30;;;14.40;99.90;;;;;;5046207;28;20025;-52
2022/09/28 11:19:49;;;;;;;1.35;1.25;;;14.40;99.90;;;;;;5040440;28;20040;-53
2022/09/28 11:22:32;;;;;;;1.25;1.00;;;14.30;99.90;;;;;;5040755;28;20025;-54
2022/09/28 11:25:16;;;;;;;2.55;1.30;;;14.10;99.90;;;;;;5039727;28;20036;-52
2022/09/28 11:27:54;;;;;;;0.80;0.80;;;14.10;99.90;;;;;;5040933;28;20029;-50
2022/09/28 11:30:44;;;;;;;0.90;0.90;;;14.40;99.90;;;;;;5042187;28;20037;-52
2022/09/28 11:33:17;;;;;;;3.85;3.33;;;14.30;99.90;;;;;;5041242;28;20124;-51
2022/09/28 11:36:02;;;;;;;8.05;6.00;;;13.80;99.90;;;;;;5040118;28;20055;-52
2022/09/28 11:39:07;;;;;;;10.20;9.20;;;13.60;99.90;;;;;;5040938;28;20082;-55
2022/09/28 11:41:51;;;;;;;1.80;1.70;;;13.60;99.90;;;;;;5046248;28;20032;-53
2022/09/28 11:44:19;;;;;;;;;;;13.80;99.90;;;;;;5041333;28;20029;-51
2022/09/28 11:46:48;;;;;;;1.55;1.08;;;14.00;99.90;;;;;;5039195;28;19908;-52
2022/09/28 11:49:32;;;;;;;3.42;2.20;;;14.30;99.90;;;;;;5040473;28;20400;-53
2022/09/28 11:52:00;;;;;;;;;;;14.20;99.90;;;;;;5041592;28;20052;-54
2022/09/28 11:54:30;;;;;;;2.05;1.40;;;14.10;99.90;;;;;;5038986;28;19999;-52
2022/09/28 11:57:05;;;;;;;4.88;1.10;;;14.10;99.90;;;;;;5040593;28;20064;-54
2022/09/28 11:59:40;;;;;;;2.28;1.25;;;14.60;99.90;;;;;;5041191;28;20028;-55
2022/09/28 12:02:16;;;;;;;1.27;1.02;;;14.60;99.90;;;;;;5038844;28;20116;-54
2022/09/28 12:04:53;;;;;;;4.78;1.63;;;14.70;99.90;;;;;;5039602;28;20024;-55
2022/09/28 12:07:23;;;;;;;0.98;0.98;;;14.50;99.90;;;;;;5039854;28;20123;-53
2022/09/28 12:09:53;;;;;;;2.95;1.00;;;14.50;99.90;;;;;;5040305;28;20112;-52
2022/09/28 12:12:48;;;;;;;1.75;1.65;;;14.10;99.90;;;;;;5040113;28;20037;-55
2022/09/28 12:15:25;;;;;;;1.60;1.50;;;13.80;99.90;;;;;;5041932;28;20076;-52
2022/09/28 12:18:10;;;;;;;1.42;1.30;;;13.90;99.90;;;;;;5050585;28;20072;-55
2022/09/28 12:20:43;;;;;;;2.28;1.27;;;14.00;99.90;;;;;;5040722;28;20025;-55
2022/09/28 12:23:28;;;;;;;1.70;1.30;;;14.20;99.90;;;;;;5040331;28;20029;-55
2022/09/28 12:26:25;;;;;;;1.35;0.85;;;14.70;99.90;;;;;;5040488;28;20036;-53
2022/09/28 12:28:57;;;;;;;0.77;0.77;;;14.80;99.90;;;;;;5041504;28;20041;-52
2022/09/28 12:31:36;;;;;;;2.20;0.98;;;14.60;99.90;;;;;;5040016;28;20182;-55
2022/09/28 12:34:03;;;;;;;0.82;0.82;;;15.10;99.90;;;;;;5038338;28;20028;-56
2022/09/28 12:37:06;;;;;;;1.20;1.10;;;15.50;99.90;;;;;;5043218;28;20037;-55
2022/09/28 12:39:44;;;;;;;3.35;1.10;;;15.90;99.90;;;;;;5044296;28;20025;-57
2022/09/28 12:42:18;;;;;;;1.25;1.15;;;15.20;99.90;;;;;;5043846;28;20405;-55
2022/09/28 12:45:07;;;;;;;4.15;0.90;;;15.30;99.90;;;;;;5043576;28;20052;-51
2022/09/28 12:47:52;;;;;;;1.85;1.00;;;15.60;99.90;;;;;;5044422;28;20029;-56
2022/09/28 12:50:32;;;;;;;5.07;1.10;;;15.50;99.90;;;;;;5044199;28;20025;-53
2022/09/28 12:53:36;;;;;;;1.13;1.00;;;14.70;99.90;;;;;;5044470;28;20059;-52
2022/09/28 12:56:19;;;;;;;2.55;1.48;;;14.70;99.90;;;;;;5042960;28;20117;-56
2022/09/28 12:58:52;;;;;;;;;;;14.70;99.90;;;;;;5044500;28;20068;-55
2022/09/28 13:01:54;;;;;;;1.50;1.40;;;14.40;99.90;;;;;;5043891;28;20005;-54
2022/09/28 13:04:38;;;;;;;1.73;1.20;;;14.30;99.90;;;;;;5043925;28;20025;-52
2022/09/28 13:07:29;;;;;;;3.83;1.85;;;14.20;99.90;;;;;;5043958;28;20454;-55
2022/09/28 13:10:18;;;;;;;4.60;1.70;;;13.90;99.90;;;;;;5051217;28;20131;-56
2022/09/28 13:12:58;;;;;;;1.30;1.20;;;13.70;99.90;;;;;;5043477;28;20037;-54
2022/09/28 13:15:26;;;;;;;4.50;1.52;;;13.60;99.90;;;;;;5043804;28;20025;-52
2022/09/28 13:18:10;;;;;;;1.95;1.77;;;13.20;99.90;;;;;;5042776;28;20041;-55
2022/09/28 13:21:02;;;;;;;3.08;2.85;;;13.00;99.90;;;;;;5042061;28;20029;-57
2022/09/28 13:23:58;;;;;;;13.40;8.43;;;13.00;99.90;;;;;;5042797;28;20438;-57
2022/09/28 13:26:35;;;;;;;14.80;9.15;;;13.00;99.90;;;;;;5042487;28;20142;-55
2022/09/28 13:29:09;;;;;;;12.52;6.40;;;12.90;99.90;;;;;;5042843;28;20072;-56
2022/09/28 13:31:50;;;;;;;50.88;23.90;;;12.80;99.90;;;;;;5043358;28;20056;-55
2022/09/28 13:34:23;;;;;;;2.17;1.90;;;12.90;99.90;;;;;;5043009;28;20080;-56
2022/09/28 13:37:08;;;;;;;;;;;12.70;99.90;;;;;;5043242;28;20369;-57